createdAt,value
2016-09-01T00:00:30.843Z,0
2016-09-01T00:01:30.514Z,0
2016-09-01T00:02:30.527Z,0
2016-09-01T00:03:30.573Z,0
2016-09-01T00:04:30.546Z,0
2016-09-01T00:05:30.532Z,0
2016-09-01T00:06:30.563Z,0
2016-09-01T00:07:30.533Z,0
2016-09-01T00:08:30.555Z,0
2016-09-01T00:09:31.265Z,0
2016-09-01T00:10:30.549Z,0
2016-09-01T00:11:30.562Z,0
2016-09-01T00:12:30.551Z,0
2016-09-01T00:13:30.596Z,0
2016-09-01T00:14:30.569Z,0
2016-09-01T00:15:30.555Z,0
2016-09-01T00:16:30.565Z,0
2016-09-01T00:17:30.569Z,0
2016-09-01T00:18:30.566Z,0
2016-09-01T00:19:30.571Z,0
2016-09-01T00:20:30.574Z,0
2016-09-01T00:21:30.579Z,0
2016-09-01T00:22:30.581Z,0
2016-09-01T00:23:30.584Z,0
2016-09-01T00:24:30.589Z,0
2016-09-01T00:25:30.595Z,0
2016-09-01T00:26:30.599Z,0
2016-09-01T00:27:30.602Z,0
2016-09-01T00:28:30.593Z,0
2016-09-01T00:29:30.598Z,0
2016-09-01T00:30:30.621Z,0
2016-09-01T00:31:30.616Z,0
2016-09-01T00:32:30.623Z,0
2016-09-01T00:33:30.621Z,0
2016-09-01T00:34:30.620Z,0
2016-09-01T00:35:30.638Z,0
2016-09-01T00:36:30.629Z,0
2016-09-01T00:37:30.641Z,0
2016-09-01T00:38:30.651Z,0
2016-09-01T00:39:30.643Z,0
2016-09-01T00:40:30.643Z,0
2016-09-01T00:41:30.647Z,0
2016-09-01T00:42:30.645Z,0
2016-09-01T00:43:30.647Z,0
2016-09-01T00:44:30.655Z,0
2016-09-01T00:45:30.654Z,0
2016-09-01T00:46:30.687Z,0
2016-09-01T00:47:30.663Z,0
2016-09-01T00:48:30.665Z,0
2016-09-01T00:49:30.666Z,0
2016-09-01T00:50:30.677Z,0
2016-09-01T00:51:30.676Z,0
2016-09-01T00:52:30.671Z,0
2016-09-01T00:53:31.392Z,0
2016-09-01T00:54:30.695Z,0
2016-09-01T00:55:31.184Z,0
2016-09-01T00:56:30.696Z,0
2016-09-01T00:57:30.695Z,0
2016-09-01T00:58:31.410Z,0
2016-09-01T00:59:30.693Z,0
2016-09-01T01:00:30.731Z,0
2016-09-01T01:01:30.700Z,0
2016-09-01T01:02:30.709Z,0
2016-09-01T01:03:30.766Z,0
2016-09-01T01:04:30.700Z,0
2016-09-01T01:05:30.753Z,0
2016-09-01T01:06:30.714Z,0
2016-09-01T01:07:30.712Z,0
2016-09-01T01:08:30.720Z,0
2016-09-01T01:09:30.719Z,0
2016-09-01T01:10:30.786Z,0
2016-09-01T01:11:31.443Z,0
2016-09-01T01:12:30.730Z,0
2016-09-01T01:13:31.452Z,0
2016-09-01T01:14:30.759Z,0
2016-09-01T01:15:30.732Z,0
2016-09-01T01:16:30.748Z,0
2016-09-01T01:17:30.748Z,0
2016-09-01T01:18:30.737Z,0
2016-09-01T01:19:30.750Z,0
2016-09-01T01:20:30.762Z,0
2016-09-01T01:21:30.761Z,0
2016-09-01T01:22:30.766Z,0
2016-09-01T01:23:30.762Z,0
2016-09-01T01:24:30.772Z,0
2016-09-01T01:25:31.470Z,0
2016-09-01T01:26:30.764Z,0
2016-09-01T01:27:30.772Z,0
2016-09-01T01:28:30.764Z,0
2016-09-01T01:29:30.781Z,0
2016-09-01T01:30:30.769Z,0
2016-09-01T01:31:30.775Z,0
2016-09-01T01:32:30.794Z,0
2016-09-01T01:33:30.775Z,0
2016-09-01T01:34:31.485Z,0
2016-09-01T01:35:30.797Z,0
2016-09-01T01:36:30.794Z,0
2016-09-01T01:37:30.794Z,0
2016-09-01T01:38:30.809Z,0
2016-09-01T01:39:30.797Z,0
2016-09-01T01:40:30.799Z,0
2016-09-01T01:41:30.799Z,0
2016-09-01T01:42:30.801Z,0
2016-09-01T01:43:31.516Z,0
2016-09-01T01:44:30.812Z,0
2016-09-01T01:45:30.827Z,0
2016-09-01T01:46:30.816Z,0
2016-09-01T01:47:30.811Z,0
2016-09-01T01:48:30.814Z,0
2016-09-01T01:49:30.824Z,0
2016-09-01T01:50:30.818Z,0
2016-09-01T01:51:30.819Z,0
2016-09-01T01:52:31.534Z,0
2016-09-01T01:53:30.831Z,0
2016-09-01T01:54:30.835Z,0
2016-09-01T01:55:30.876Z,0
2016-09-01T01:56:30.831Z,0
2016-09-01T01:57:30.837Z,0
2016-09-01T01:58:30.840Z,0
2016-09-01T01:59:30.852Z,0
2016-09-01T02:00:30.847Z,0
2016-09-01T02:01:30.855Z,0
2016-09-01T02:02:30.851Z,0
2016-09-01T02:03:31.657Z,0
2016-09-01T02:04:30.865Z,0
2016-09-01T02:05:31.775Z,0
2016-09-01T02:06:30.875Z,0
2016-09-01T02:07:30.855Z,0
2016-09-01T02:08:30.870Z,0
2016-09-01T02:09:30.876Z,0
2016-09-01T02:10:31.585Z,0
2016-09-01T02:11:30.872Z,0
2016-09-01T02:12:30.883Z,0
2016-09-01T02:13:30.895Z,0
2016-09-01T02:14:30.880Z,0
2016-09-01T02:15:30.883Z,0
2016-09-01T02:16:30.887Z,0
2016-09-01T02:17:30.880Z,0
2016-09-01T02:18:30.878Z,0
2016-09-01T02:19:30.894Z,0
2016-09-01T02:20:30.897Z,0
2016-09-01T02:21:30.893Z,0
2016-09-01T02:22:30.891Z,0
2016-09-01T02:23:31.611Z,0
2016-09-01T02:24:30.898Z,0
2016-09-01T02:25:30.929Z,0
2016-09-01T02:26:30.897Z,0
2016-09-01T02:27:30.911Z,0
2016-09-01T02:28:30.902Z,0
2016-09-01T02:29:30.903Z,0
2016-09-01T02:30:30.994Z,0
2016-09-01T02:31:30.909Z,0
2016-09-01T02:32:30.925Z,0
2016-09-01T02:33:33.048Z,0
2016-09-01T02:34:30.917Z,0
2016-09-01T02:35:30.940Z,0
2016-09-01T02:36:30.929Z,0
2016-09-01T02:37:30.920Z,0
2016-09-01T02:38:30.927Z,0
2016-09-01T02:39:31.635Z,0
2016-09-01T02:40:30.945Z,0
2016-09-01T02:41:30.936Z,0
2016-09-01T02:42:30.968Z,0
2016-09-01T02:43:30.949Z,0
2016-09-01T02:44:30.965Z,0
2016-09-01T02:45:31.038Z,0
2016-09-01T02:46:30.945Z,0
2016-09-01T02:47:30.965Z,0
2016-09-01T02:48:30.956Z,0
2016-09-01T02:49:30.975Z,0
2016-09-01T02:50:30.965Z,0
2016-09-01T02:51:30.953Z,0
2016-09-01T02:52:30.968Z,0
2016-09-01T02:53:30.963Z,0
2016-09-01T02:54:30.967Z,0
2016-09-01T02:55:31.015Z,0
2016-09-01T02:56:30.968Z,0
2016-09-01T02:57:30.983Z,0
2016-09-01T02:58:30.980Z,0
2016-09-01T02:59:30.977Z,0
2016-09-01T03:00:31.683Z,0
2016-09-01T03:01:30.995Z,0
2016-09-01T03:02:30.984Z,0
2016-09-01T03:03:31.093Z,0
2016-09-01T03:04:30.995Z,0
2016-09-01T03:05:30.994Z,0
2016-09-01T03:06:31.010Z,0
2016-09-01T03:07:30.996Z,0
2016-09-01T03:08:30.996Z,0
2016-09-01T03:09:31.000Z,0
2016-09-01T03:10:31.724Z,0
2016-09-01T03:11:31.002Z,0
2016-09-01T03:12:31.008Z,0
2016-09-01T03:13:31.014Z,0
2016-09-01T03:14:31.008Z,0
2016-09-01T03:15:31.011Z,0
2016-09-01T03:16:31.007Z,0
2016-09-01T03:17:31.012Z,0
2016-09-01T03:18:31.038Z,0
2016-09-01T03:19:31.016Z,0
2016-09-01T03:20:31.037Z,0
2016-09-01T03:21:31.038Z,0
2016-09-01T03:22:31.017Z,0
2016-09-01T03:23:31.048Z,0
2016-09-01T03:24:31.031Z,0
2016-09-01T03:25:31.036Z,0
2016-09-01T03:26:31.033Z,0
2016-09-01T03:27:31.054Z,0
2016-09-01T03:28:31.039Z,0
2016-09-01T03:29:31.765Z,0
2016-09-01T03:30:31.053Z,0
2016-09-01T03:31:31.039Z,0
2016-09-01T03:32:31.045Z,0
2016-09-01T03:33:31.069Z,0
2016-09-01T03:34:31.050Z,0
2016-09-01T03:35:31.128Z,0
2016-09-01T03:36:31.055Z,0
2016-09-01T03:37:31.093Z,0
2016-09-01T03:38:31.058Z,0
2016-09-01T03:39:31.056Z,0
2016-09-01T03:40:31.070Z,0
2016-09-01T03:41:31.069Z,0
2016-09-01T03:42:31.075Z,0
2016-09-01T03:43:31.063Z,0
2016-09-01T03:44:31.070Z,0
2016-09-01T03:45:31.789Z,0
2016-09-01T03:46:31.071Z,0
2016-09-01T03:47:31.077Z,0
2016-09-01T03:48:31.065Z,0
2016-09-01T03:49:31.076Z,0
2016-09-01T03:50:31.325Z,0
2016-09-01T03:51:31.099Z,0
2016-09-01T03:52:31.084Z,0
2016-09-01T03:53:31.113Z,0
2016-09-01T03:54:31.832Z,0
2016-09-01T03:55:31.167Z,0
2016-09-01T03:56:31.112Z,0
2016-09-01T03:57:31.104Z,0
2016-09-01T03:58:31.105Z,0
2016-09-01T03:59:31.820Z,0
2016-09-01T04:00:31.117Z,0
2016-09-01T04:01:31.127Z,0
2016-09-01T04:02:31.140Z,0
2016-09-01T04:03:31.191Z,0
2016-09-01T04:04:31.108Z,0
2016-09-01T04:05:31.136Z,0
2016-09-01T04:06:31.131Z,0
2016-09-01T04:07:31.137Z,0
2016-09-01T04:08:31.130Z,0
2016-09-01T04:09:31.121Z,0
2016-09-01T04:10:31.128Z,0
2016-09-01T04:11:31.178Z,0
2016-09-01T04:12:31.135Z,0
2016-09-01T04:13:31.144Z,0
2016-09-01T04:14:31.156Z,0
2016-09-01T04:15:31.171Z,0
2016-09-01T04:16:31.165Z,0
2016-09-01T04:17:31.144Z,0
2016-09-01T04:18:31.155Z,0
2016-09-01T04:19:31.140Z,0
2016-09-01T04:20:31.957Z,0
2016-09-01T04:21:31.148Z,0
2016-09-01T04:22:31.142Z,0
2016-09-01T04:23:31.162Z,0
2016-09-01T04:24:31.177Z,0
2016-09-01T04:25:31.153Z,0
2016-09-01T04:26:31.157Z,0
2016-09-01T04:27:31.164Z,0
2016-09-01T04:28:31.172Z,0
2016-09-01T04:29:31.170Z,0
2016-09-01T04:30:31.885Z,0
2016-09-01T04:31:31.884Z,0
2016-09-01T04:32:31.184Z,0
2016-09-01T04:33:31.192Z,0
2016-09-01T04:34:31.170Z,0
2016-09-01T04:35:31.206Z,0
2016-09-01T04:36:31.168Z,5
2016-09-01T04:37:31.175Z,5
2016-09-01T04:38:31.187Z,5
2016-09-01T04:39:31.205Z,5
2016-09-01T04:40:31.196Z,5
2016-09-01T04:41:31.190Z,5
2016-09-01T04:42:31.196Z,5
2016-09-01T04:43:31.218Z,5
2016-09-01T04:44:31.202Z,10
2016-09-01T04:45:31.266Z,10
2016-09-01T04:46:31.192Z,10
2016-09-01T04:47:31.203Z,10
2016-09-01T04:48:31.201Z,10
2016-09-01T04:49:31.207Z,15
2016-09-01T04:50:31.319Z,15
2016-09-01T04:51:31.241Z,15
2016-09-01T04:52:31.245Z,15
2016-09-01T04:53:31.293Z,15
2016-09-01T04:54:31.937Z,20
2016-09-01T04:55:31.235Z,20
2016-09-01T04:56:31.223Z,20
2016-09-01T04:57:31.237Z,20
2016-09-01T04:58:31.221Z,25
2016-09-01T04:59:31.941Z,25
2016-09-01T05:00:31.251Z,25
2016-09-01T05:01:31.249Z,30
2016-09-01T05:02:31.217Z,30
2016-09-01T05:03:31.277Z,30
2016-09-01T05:04:31.226Z,35
2016-09-01T05:05:31.649Z,35
2016-09-01T05:06:31.225Z,35
2016-09-01T05:07:31.249Z,35
2016-09-01T05:08:31.254Z,40
2016-09-01T05:09:31.253Z,40
2016-09-01T05:10:31.314Z,40
2016-09-01T05:11:31.600Z,50
2016-09-01T05:12:31.256Z,45
2016-09-01T05:13:31.964Z,45
2016-09-01T05:14:31.255Z,45
2016-09-01T05:15:31.254Z,50
2016-09-01T05:16:31.267Z,55
2016-09-01T05:17:31.255Z,60
2016-09-01T05:18:31.260Z,60
2016-09-01T05:19:31.262Z,60
2016-09-01T05:20:31.267Z,65
2016-09-01T05:21:31.309Z,65
2016-09-01T05:22:31.275Z,55
2016-09-01T05:23:31.975Z,70
2016-09-01T05:24:31.270Z,65
2016-09-01T05:25:31.294Z,70
2016-09-01T05:26:31.282Z,70
2016-09-01T05:27:31.337Z,75
2016-09-01T05:28:31.971Z,70
2016-09-01T05:29:31.282Z,65
2016-09-01T05:30:31.285Z,60
2016-09-01T05:31:31.284Z,65
2016-09-01T05:32:31.288Z,70
2016-09-01T05:33:31.313Z,70
2016-09-01T05:34:31.285Z,70
2016-09-01T05:35:31.291Z,70
2016-09-01T05:36:31.313Z,70
2016-09-01T05:37:31.301Z,75
2016-09-01T05:38:31.324Z,75
2016-09-01T05:39:31.323Z,75
2016-09-01T05:40:31.326Z,80
2016-09-01T05:41:31.337Z,85
2016-09-01T05:42:31.337Z,90
2016-09-01T05:43:32.036Z,95
2016-09-01T05:44:31.348Z,100
2016-09-01T05:45:31.430Z,100
2016-09-01T05:46:31.373Z,105
2016-09-01T05:47:31.343Z,110
2016-09-01T05:48:31.330Z,115
2016-09-01T05:49:31.335Z,120
2016-09-01T05:50:31.383Z,120
2016-09-01T05:51:31.342Z,115
2016-09-01T05:52:31.330Z,120
2016-09-01T05:53:31.354Z,120
2016-09-01T05:54:31.354Z,115
2016-09-01T05:55:31.344Z,110
2016-09-01T05:56:31.366Z,110
2016-09-01T05:57:31.359Z,110
2016-09-01T05:58:31.352Z,110
2016-09-01T05:59:31.348Z,110
2016-09-01T06:00:31.361Z,110
2016-09-01T06:01:31.360Z,110
2016-09-01T06:02:31.396Z,110
2016-09-01T06:03:31.465Z,110
2016-09-01T06:04:32.078Z,120
2016-09-01T06:05:31.873Z,120
2016-09-01T06:06:31.397Z,125
2016-09-01T06:07:31.398Z,120
2016-09-01T06:08:31.410Z,115
2016-09-01T06:09:31.390Z,110
2016-09-01T06:10:31.418Z,105
2016-09-01T06:11:31.400Z,110
2016-09-01T06:12:31.416Z,110
2016-09-01T06:13:31.402Z,110
2016-09-01T06:14:31.479Z,115
2016-09-01T06:15:31.474Z,120
2016-09-01T06:16:31.404Z,120
2016-09-01T06:17:31.401Z,125
2016-09-01T06:18:31.407Z,125
2016-09-01T06:19:31.421Z,115
2016-09-01T06:20:31.420Z,120
2016-09-01T06:21:32.174Z,140
2016-09-01T06:22:31.439Z,140
2016-09-01T06:23:31.431Z,120
2016-09-01T06:24:31.454Z,100
2016-09-01T06:25:32.126Z,100
2016-09-01T06:26:31.439Z,100
2016-09-01T06:27:31.437Z,105
2016-09-01T06:28:31.436Z,105
2016-09-01T06:29:31.454Z,110
2016-09-01T06:30:31.628Z,110
2016-09-01T06:31:31.473Z,115
2016-09-01T06:32:31.456Z,140
2016-09-01T06:33:31.459Z,215
2016-09-01T06:34:31.463Z,220
2016-09-01T06:35:32.260Z,220
2016-09-01T06:36:31.461Z,225
2016-09-01T06:37:31.470Z,230
2016-09-01T06:38:32.894Z,230
2016-09-01T06:39:31.527Z,240
2016-09-01T06:40:31.526Z,240
2016-09-01T06:41:31.483Z,230
2016-09-01T06:42:31.482Z,230
2016-09-01T06:43:31.483Z,230
2016-09-01T06:44:31.483Z,230
2016-09-01T06:45:31.962Z,230
2016-09-01T06:46:31.497Z,225
2016-09-01T06:47:31.498Z,205
2016-09-01T06:48:31.509Z,170
2016-09-01T06:49:31.510Z,185
2016-09-01T06:50:31.530Z,225
2016-09-01T06:51:31.574Z,240
2016-09-01T06:52:31.524Z,245
2016-09-01T06:53:32.301Z,235
2016-09-01T06:54:31.544Z,260
2016-09-01T06:55:31.602Z,270
2016-09-01T06:56:31.549Z,280
2016-09-01T06:57:31.551Z,215
2016-09-01T06:58:31.562Z,300
2016-09-01T06:59:31.562Z,295
2016-09-01T07:00:31.612Z,265
2016-09-01T07:01:31.580Z,245
2016-09-01T07:02:31.573Z,210
2016-09-01T07:03:31.688Z,185
2016-09-01T07:04:31.591Z,190
2016-09-01T07:05:31.687Z,190
2016-09-01T07:06:31.671Z,185
2016-09-01T07:07:31.622Z,190
2016-09-01T07:08:31.615Z,185
2016-09-01T07:09:32.329Z,180
2016-09-01T07:10:31.620Z,180
2016-09-01T07:11:31.632Z,175
2016-09-01T07:12:31.640Z,175
2016-09-01T07:13:31.642Z,175
2016-09-01T07:14:31.711Z,240
2016-09-01T07:15:31.803Z,185
2016-09-01T07:16:31.674Z,255
2016-09-01T07:17:31.685Z,200
2016-09-01T07:18:31.720Z,170
2016-09-01T07:19:31.867Z,225
2016-09-01T07:20:31.690Z,170
2016-09-01T07:21:32.403Z,170
2016-09-01T07:22:31.694Z,195
2016-09-01T07:23:31.698Z,200
2016-09-01T07:24:31.705Z,185
2016-09-01T07:25:31.699Z,170
2016-09-01T07:26:31.711Z,190
2016-09-01T07:27:31.727Z,200
2016-09-01T07:28:32.422Z,165
2016-09-01T07:29:31.720Z,155
2016-09-01T07:30:31.774Z,150
2016-09-01T07:31:31.724Z,145
2016-09-01T07:32:31.744Z,165
2016-09-01T07:33:31.745Z,150
2016-09-01T07:34:31.751Z,150
2016-09-01T07:35:32.141Z,150
2016-09-01T07:36:31.775Z,145
2016-09-01T07:37:31.752Z,140
2016-09-01T07:38:31.768Z,140
2016-09-01T07:39:31.767Z,140
2016-09-01T07:40:32.121Z,135
2016-09-01T07:41:31.951Z,135
2016-09-01T07:42:31.781Z,135
2016-09-01T07:43:31.775Z,130
2016-09-01T07:44:31.792Z,135
2016-09-01T07:45:31.803Z,135
2016-09-01T07:46:31.791Z,140
2016-09-01T07:47:31.804Z,250
2016-09-01T07:48:31.812Z,245
2016-09-01T07:49:31.819Z,230
2016-09-01T07:50:31.899Z,200
2016-09-01T07:51:31.827Z,220
2016-09-01T07:52:31.821Z,165
2016-09-01T07:53:31.825Z,250
2016-09-01T07:54:31.832Z,260
2016-09-01T07:55:31.916Z,260
2016-09-01T07:56:31.849Z,255
2016-09-01T07:57:31.848Z,265
2016-09-01T07:58:31.850Z,265
2016-09-01T07:59:31.866Z,270
2016-09-01T08:00:31.874Z,270
2016-09-01T08:01:31.867Z,275
2016-09-01T08:02:31.876Z,275
2016-09-01T08:03:31.940Z,275
2016-09-01T08:04:31.891Z,275
2016-09-01T08:05:31.899Z,250
2016-09-01T08:06:31.900Z,255
2016-09-01T08:07:31.912Z,250
2016-09-01T08:08:31.913Z,250
2016-09-01T08:09:31.923Z,250
2016-09-01T08:10:32.003Z,245
2016-09-01T08:11:31.934Z,250
2016-09-01T08:12:31.942Z,285
2016-09-01T08:13:31.950Z,280
2016-09-01T08:14:32.670Z,285
2016-09-01T08:15:31.975Z,285
2016-09-01T08:16:31.964Z,300
2016-09-01T08:17:31.974Z,300
2016-09-01T08:18:31.990Z,305
2016-09-01T08:19:31.990Z,305
2016-09-01T08:20:32.762Z,300
2016-09-01T08:21:32.001Z,300
2016-09-01T08:22:32.017Z,295
2016-09-01T08:23:32.067Z,295
2016-09-01T08:24:32.030Z,290
2016-09-01T08:25:32.055Z,295
2016-09-01T08:26:32.744Z,305
2016-09-01T08:27:32.053Z,300
2016-09-01T08:28:32.055Z,300
2016-09-01T08:29:32.079Z,300
2016-09-01T08:30:32.084Z,295
2016-09-01T08:31:32.072Z,300
2016-09-01T08:32:32.086Z,300
2016-09-01T08:33:32.092Z,305
2016-09-01T08:34:32.130Z,310
2016-09-01T08:35:32.948Z,305
2016-09-01T08:36:32.126Z,305
2016-09-01T08:37:32.141Z,295
2016-09-01T08:38:32.849Z,290
2016-09-01T08:39:32.147Z,275
2016-09-01T08:40:32.154Z,270
2016-09-01T08:41:32.163Z,265
2016-09-01T08:42:32.162Z,265
2016-09-01T08:43:32.183Z,275
2016-09-01T08:44:32.188Z,270
2016-09-01T08:45:32.226Z,275
2016-09-01T08:46:32.201Z,275
2016-09-01T08:47:32.203Z,275
2016-09-01T08:48:32.235Z,270
2016-09-01T08:49:32.217Z,260
2016-09-01T08:50:32.307Z,255
2016-09-01T08:51:32.244Z,250
2016-09-01T08:52:32.422Z,250
2016-09-01T08:53:32.254Z,250
2016-09-01T08:54:32.966Z,250
2016-09-01T08:55:32.280Z,245
2016-09-01T08:56:32.279Z,245
2016-09-01T08:57:32.287Z,250
2016-09-01T08:58:32.284Z,250
2016-09-01T08:59:33.008Z,250
2016-09-01T09:00:32.288Z,255
2016-09-01T09:01:32.303Z,245
2016-09-01T09:02:32.307Z,240
2016-09-01T09:03:32.412Z,235
2016-09-01T09:04:33.031Z,230
2016-09-01T09:05:33.070Z,230
2016-09-01T09:06:32.318Z,230
2016-09-01T09:07:32.354Z,230
2016-09-01T09:08:32.345Z,225
2016-09-01T09:09:32.359Z,225
2016-09-01T09:10:32.364Z,215
2016-09-01T09:11:32.344Z,210
2016-09-01T09:12:32.351Z,205
2016-09-01T09:13:32.367Z,215
2016-09-01T09:14:32.364Z,230
2016-09-01T09:15:33.357Z,225
2016-09-01T09:16:32.374Z,230
2016-09-01T09:17:32.382Z,230
2016-09-01T09:18:32.384Z,230
2016-09-01T09:19:32.402Z,230
2016-09-01T09:20:32.404Z,225
2016-09-01T09:21:32.402Z,230
2016-09-01T09:22:32.407Z,230
2016-09-01T09:23:32.493Z,230
2016-09-01T09:24:32.415Z,225
2016-09-01T09:25:32.426Z,230
2016-09-01T09:26:32.425Z,235
2016-09-01T09:27:32.437Z,230
2016-09-01T09:28:32.442Z,235
2016-09-01T09:29:32.447Z,240
2016-09-01T09:30:32.499Z,235
2016-09-01T09:31:32.454Z,240
2016-09-01T09:32:32.458Z,235
2016-09-01T09:33:33.164Z,205
2016-09-01T09:34:32.465Z,240
2016-09-01T09:35:33.487Z,235
2016-09-01T09:36:32.476Z,235
2016-09-01T09:37:32.482Z,235
2016-09-01T09:38:32.487Z,230
2016-09-01T09:39:32.485Z,220
2016-09-01T09:40:32.499Z,175
2016-09-01T09:41:32.499Z,205
2016-09-01T09:42:32.504Z,225
2016-09-01T09:43:33.930Z,185
2016-09-01T09:44:32.510Z,185
2016-09-01T09:45:32.529Z,185
2016-09-01T09:46:32.526Z,205
2016-09-01T09:47:32.541Z,185
2016-09-01T09:48:32.535Z,230
2016-09-01T09:49:32.539Z,235
2016-09-01T09:50:32.602Z,195
2016-09-01T09:51:32.567Z,180
2016-09-01T09:52:32.555Z,235
2016-09-01T09:53:32.567Z,235
2016-09-01T09:54:32.570Z,180
2016-09-01T09:55:33.073Z,185
2016-09-01T09:56:32.584Z,190
2016-09-01T09:57:32.595Z,250
2016-09-01T09:58:32.587Z,255
2016-09-01T09:59:32.585Z,250
2016-09-01T10:00:32.636Z,250
2016-09-01T10:01:32.600Z,255
2016-09-01T10:02:32.598Z,255
2016-09-01T10:03:32.667Z,255
2016-09-01T10:04:32.621Z,255
2016-09-01T10:05:32.623Z,255
2016-09-01T10:06:32.623Z,255
2016-09-01T10:07:32.628Z,250
2016-09-01T10:08:32.639Z,245
2016-09-01T10:09:32.660Z,255
2016-09-01T10:10:32.759Z,260
2016-09-01T10:11:32.657Z,265
2016-09-01T10:12:32.663Z,230
2016-09-01T10:13:32.658Z,220
2016-09-01T10:14:32.675Z,220
2016-09-01T10:15:32.679Z,230
2016-09-01T10:16:32.684Z,230
2016-09-01T10:17:32.676Z,240
2016-09-01T10:18:32.682Z,250
2016-09-01T10:19:32.685Z,255
2016-09-01T10:20:32.707Z,300
2016-09-01T10:21:32.703Z,275
2016-09-01T10:22:32.710Z,275
2016-09-01T10:23:33.274Z,270
2016-09-01T10:24:32.735Z,280
2016-09-01T10:25:32.733Z,280
2016-09-01T10:26:32.724Z,275
2016-09-01T10:27:32.741Z,270
2016-09-01T10:28:32.737Z,275
2016-09-01T10:29:33.590Z,265
2016-09-01T10:30:32.800Z,275
2016-09-01T10:31:32.759Z,295
2016-09-01T10:32:32.751Z,275
2016-09-01T10:33:32.765Z,280
2016-09-01T10:34:32.769Z,300
2016-09-01T10:35:32.830Z,290
2016-09-01T10:36:32.788Z,300
2016-09-01T10:37:32.805Z,305
2016-09-01T10:38:32.779Z,345
2016-09-01T10:39:32.802Z,325
2016-09-01T10:40:32.799Z,310
2016-09-01T10:41:32.801Z,305
2016-09-01T10:42:32.805Z,295
2016-09-01T10:43:33.529Z,295
2016-09-01T10:44:32.818Z,285
2016-09-01T10:45:32.951Z,285
2016-09-01T10:46:32.836Z,280
2016-09-01T10:47:32.832Z,265
2016-09-01T10:48:32.835Z,250
2016-09-01T10:49:32.848Z,250
2016-09-01T10:50:32.927Z,250
2016-09-01T10:51:32.860Z,245
2016-09-01T10:52:32.867Z,245
2016-09-01T10:53:32.864Z,235
2016-09-01T10:54:32.869Z,230
2016-09-01T10:55:32.972Z,230
2016-09-01T10:56:32.880Z,220
2016-09-01T10:57:32.884Z,215
2016-09-01T10:58:32.890Z,210
2016-09-01T10:59:32.892Z,215
2016-09-01T11:00:32.972Z,215
2016-09-01T11:01:32.910Z,215
2016-09-01T11:02:32.909Z,215
2016-09-01T11:03:32.965Z,220
2016-09-01T11:04:32.944Z,230
2016-09-01T11:05:33.027Z,255
2016-09-01T11:06:32.943Z,285
2016-09-01T11:07:32.953Z,300
2016-09-01T11:08:32.941Z,330
2016-09-01T11:09:32.966Z,335
2016-09-01T11:10:32.954Z,350
2016-09-01T11:11:32.961Z,325
2016-09-01T11:12:32.974Z,315
2016-09-01T11:13:32.979Z,310
2016-09-01T11:14:32.974Z,305
2016-09-01T11:15:33.033Z,300
2016-09-01T11:16:33.689Z,295
2016-09-01T11:17:33.001Z,285
2016-09-01T11:18:33.004Z,285
2016-09-01T11:19:33.001Z,285
2016-09-01T11:20:33.064Z,280
2016-09-01T11:21:33.017Z,265
2016-09-01T11:22:33.789Z,260
2016-09-01T11:23:33.040Z,255
2016-09-01T11:24:33.029Z,255
2016-09-01T11:25:33.151Z,245
2016-09-01T11:26:33.051Z,275
2016-09-01T11:27:33.071Z,275
2016-09-01T11:28:33.074Z,285
2016-09-01T11:29:33.070Z,260
2016-09-01T11:30:33.069Z,275
2016-09-01T11:31:33.090Z,320
2016-09-01T11:32:33.079Z,285
2016-09-01T11:33:33.091Z,260
2016-09-01T11:34:33.810Z,245
2016-09-01T11:35:34.457Z,230
2016-09-01T11:36:33.106Z,225
2016-09-01T11:37:33.108Z,240
2016-09-01T11:38:33.166Z,235
2016-09-01T11:39:33.135Z,215
2016-09-01T11:40:33.145Z,235
2016-09-01T11:41:33.135Z,205
2016-09-01T11:42:33.134Z,215
2016-09-01T11:43:33.863Z,225
2016-09-01T11:44:33.157Z,225
2016-09-01T11:45:33.157Z,225
2016-09-01T11:46:33.160Z,250
2016-09-01T11:47:33.163Z,265
2016-09-01T11:48:33.170Z,270
2016-09-01T11:49:33.187Z,285
2016-09-01T11:50:33.449Z,285
2016-09-01T11:51:33.190Z,285
2016-09-01T11:52:33.205Z,275
2016-09-01T11:53:33.211Z,270
2016-09-01T11:54:33.209Z,255
2016-09-01T11:55:33.203Z,225
2016-09-01T11:56:33.228Z,235
2016-09-01T11:57:33.227Z,265
2016-09-01T11:58:33.229Z,285
2016-09-01T11:59:33.236Z,290
2016-09-01T12:00:33.240Z,270
2016-09-01T12:01:33.241Z,265
2016-09-01T12:02:33.269Z,300
2016-09-01T12:03:33.506Z,295
2016-09-01T12:04:33.973Z,305
2016-09-01T12:05:33.302Z,290
2016-09-01T12:06:33.291Z,255
2016-09-01T12:07:33.276Z,250
2016-09-01T12:08:33.291Z,250
2016-09-01T12:09:33.291Z,245
2016-09-01T12:10:34.093Z,260
2016-09-01T12:11:33.300Z,255
2016-09-01T12:12:34.017Z,225
2016-09-01T12:13:33.315Z,225
2016-09-01T12:14:33.318Z,230
2016-09-01T12:15:34.107Z,225
2016-09-01T12:16:33.327Z,225
2016-09-01T12:17:33.333Z,230
2016-09-01T12:18:33.368Z,240
2016-09-01T12:19:33.361Z,260
2016-09-01T12:20:33.385Z,260
2016-09-01T12:21:33.360Z,260
2016-09-01T12:22:34.071Z,255
2016-09-01T12:23:34.078Z,250
2016-09-01T12:24:34.564Z,240
2016-09-01T12:25:33.505Z,225
2016-09-01T12:26:34.095Z,220
2016-09-01T12:27:34.095Z,215
2016-09-01T12:28:33.407Z,210
2016-09-01T12:29:33.411Z,220
2016-09-01T12:30:33.439Z,215
2016-09-01T12:31:33.432Z,215
2016-09-01T12:32:33.427Z,220
2016-09-01T12:33:33.433Z,220
2016-09-01T12:34:33.440Z,220
2016-09-01T12:35:33.549Z,235
2016-09-01T12:36:33.466Z,235
2016-09-01T12:37:33.451Z,240
2016-09-01T12:38:33.482Z,240
2016-09-01T12:39:33.492Z,240
2016-09-01T12:40:33.497Z,245
2016-09-01T12:41:33.481Z,240
2016-09-01T12:42:33.491Z,235
2016-09-01T12:43:33.492Z,235
2016-09-01T12:44:34.210Z,230
2016-09-01T12:45:33.552Z,225
2016-09-01T12:46:33.529Z,225
2016-09-01T12:47:33.517Z,225
2016-09-01T12:48:33.542Z,220
2016-09-01T12:49:33.517Z,220
2016-09-01T12:50:33.594Z,220
2016-09-01T12:51:38.167Z,220
2016-09-01T12:52:33.545Z,215
2016-09-01T12:53:33.557Z,210
2016-09-01T12:54:33.549Z,215
2016-09-01T12:55:33.613Z,215
2016-09-01T12:56:33.562Z,205
2016-09-01T12:57:33.576Z,195
2016-09-01T12:58:33.570Z,215
2016-09-01T12:59:33.587Z,215
2016-09-01T13:00:33.682Z,220
2016-09-01T13:01:33.582Z,220
2016-09-01T13:02:33.606Z,220
2016-09-01T13:03:33.953Z,220
2016-09-01T13:04:33.605Z,220
2016-09-01T13:05:33.787Z,220
2016-09-01T13:06:33.603Z,225
2016-09-01T13:07:33.614Z,225
2016-09-01T13:08:33.621Z,230
2016-09-01T13:09:34.349Z,230
2016-09-01T13:10:33.650Z,225
2016-09-01T13:11:33.658Z,225
2016-09-01T13:12:33.998Z,225
2016-09-01T13:13:33.657Z,225
2016-09-01T13:14:33.666Z,225
2016-09-01T13:15:33.681Z,225
2016-09-01T13:16:33.683Z,225
2016-09-01T13:17:33.687Z,225
2016-09-01T13:18:33.666Z,225
2016-09-01T13:19:33.677Z,225
2016-09-01T13:20:33.731Z,230
2016-09-01T13:21:33.839Z,215
2016-09-01T13:22:33.688Z,225
2016-09-01T13:23:33.713Z,225
2016-09-01T13:24:33.733Z,225
2016-09-01T13:25:33.760Z,220
2016-09-01T13:26:33.728Z,225
2016-09-01T13:27:33.745Z,220
2016-09-01T13:28:33.734Z,225
2016-09-01T13:29:33.731Z,220
2016-09-01T13:30:33.859Z,225
2016-09-01T13:31:34.472Z,225
2016-09-01T13:32:33.753Z,215
2016-09-01T13:33:33.746Z,215
2016-09-01T13:34:33.765Z,210
2016-09-01T13:35:33.841Z,210
2016-09-01T13:36:33.770Z,210
2016-09-01T13:37:33.780Z,210
2016-09-01T13:38:33.784Z,210
2016-09-01T13:39:33.779Z,210
2016-09-01T13:40:33.845Z,210
2016-09-01T13:41:33.784Z,210
2016-09-01T13:42:33.817Z,210
2016-09-01T13:43:33.789Z,205
2016-09-01T13:44:33.809Z,205
2016-09-01T13:45:33.824Z,200
2016-09-01T13:46:33.825Z,200
2016-09-01T13:47:33.819Z,195
2016-09-01T13:48:33.826Z,195
2016-09-01T13:49:33.845Z,190
2016-09-01T13:50:33.850Z,190
2016-09-01T13:51:35.061Z,190
2016-09-01T13:52:33.853Z,190
2016-09-01T13:53:33.848Z,190
2016-09-01T13:54:33.862Z,190
2016-09-01T13:55:33.906Z,190
2016-09-01T13:56:33.867Z,190
2016-09-01T13:57:33.867Z,185
2016-09-01T13:58:33.876Z,185
2016-09-01T13:59:33.873Z,185
2016-09-01T14:00:33.957Z,185
2016-09-01T14:01:33.890Z,185
2016-09-01T14:02:33.890Z,185
2016-09-01T14:03:34.014Z,185
2016-09-01T14:04:33.923Z,190
2016-09-01T14:05:33.950Z,180
2016-09-01T14:06:33.919Z,180
2016-09-01T14:07:33.916Z,180